Rivervale, Arkansas
Current Conditions -  °F | °C
As of 1:53 PM on Monday 26 Jan 2015 (Local Time) from KJBR Reporting Station
Clear Clear  
Wind Chill: 39°   Ceiling: Unl
Heat Index: 45°   Visibility: 10mi
Dew Point: 33°   Wind: 14mph
Humidity: 63%   Direction: 240°WSW
Pressure: 30.01"   Gusts: NA
Location:  35.67°N, 90.34°W
Report Text: KJBR 261953Z AUTO 24012KT 10SM CLR 07/01 A3001 RMK AO2 SLP161 T00720006
Loading
Personal Weather Stations






























Interactive Weather Map New forecast layout! Learn more

10-Day Weather Forecast

Advertisements
Track Severe Weather on mobile